createdAt,value
2022-09-22T00:00:10.898Z,10.53
2022-09-22T00:01:13.489Z,7.87
2022-09-22T00:02:16.373Z,7.53
2022-09-22T00:03:18.877Z,8.42
2022-09-22T00:04:21.318Z,10.15
2022-09-22T00:05:23.796Z,10.30
2022-09-22T00:06:26.419Z,9.34
2022-09-22T00:07:28.860Z,8.95
2022-09-22T00:08:31.324Z,8.27
2022-09-22T00:09:33.798Z,13.17
2022-09-22T00:10:36.334Z,8.51
2022-09-22T00:11:38.818Z,12.51
2022-09-22T00:12:41.247Z,8.95
2022-09-22T00:13:43.710Z,10.86
2022-09-22T00:14:46.455Z,14.13
2022-09-22T00:15:48.887Z,8.11
2022-09-22T00:16:51.463Z,9.52
2022-09-22T00:17:53.934Z,10.99
2022-09-22T00:18:56.413Z,8.28
2022-09-22T00:19:58.846Z,8.49
2022-09-22T00:21:01.582Z,11.25
2022-09-22T00:22:04.087Z,8.37
2022-09-22T00:23:06.583Z,12.50
2022-09-22T00:24:09.047Z,7.62
2022-09-22T00:25:11.481Z,8.87
2022-09-22T00:26:14.221Z,8.47
2022-09-22T00:27:16.827Z,7.91
2022-09-22T00:28:19.335Z,6.30
2022-09-22T00:29:21.792Z,11.67
2022-09-22T00:30:24.329Z,6.97
2022-09-22T00:31:26.782Z,10.94
2022-09-22T00:32:29.287Z,9.40
2022-09-22T00:33:31.728Z,7.65
2022-09-22T00:34:34.166Z,6.92
2022-09-22T00:35:36.596Z,4.91
2022-09-22T00:36:39.163Z,10.11
2022-09-22T00:37:41.623Z,6.03
2022-09-22T00:38:44.080Z,8.01
2022-09-22T00:39:46.512Z,9.35
2022-09-22T00:40:49.156Z,5.79
2022-09-22T00:41:51.904Z,7.56
2022-09-22T00:42:54.427Z,7.35
2022-09-22T00:43:56.866Z,6.71
2022-09-22T00:44:59.314Z,5.34
2022-09-22T00:46:01.761Z,5.35
2022-09-22T00:47:04.290Z,3.78
2022-09-22T00:48:06.981Z,7.27
2022-09-22T00:49:09.424Z,7.89
2022-09-22T00:50:12.271Z,4.80
2022-09-22T00:51:14.921Z,8.52
2022-09-22T00:52:17.367Z,8.21
2022-09-22T00:53:19.840Z,8.29
2022-09-22T00:54:22.282Z,5.65
2022-09-22T00:55:24.720Z,7.07
2022-09-22T00:56:27.401Z,8.74
2022-09-22T00:57:29.872Z,12.82
2022-09-22T00:58:32.340Z,11.59
2022-09-22T00:59:34.804Z,9.46
2022-09-22T01:00:37.510Z,10.03
2022-09-22T01:01:40.185Z,10.65
2022-09-22T01:02:42.789Z,13.55
2022-09-22T01:03:45.324Z,17.19
2022-09-22T01:04:47.769Z,17.09
2022-09-22T01:05:50.215Z,12.88
2022-09-22T01:06:52.874Z,19.89
2022-09-22T01:07:55.322Z,14.61
2022-09-22T01:08:57.784Z,19.58
2022-09-22T01:10:00.237Z,14.10
2022-09-22T01:11:02.670Z,16.27
2022-09-22T01:12:05.144Z,14.57
2022-09-22T01:13:07.614Z,14.77
2022-09-22T01:14:10.088Z,14.68
2022-09-22T01:15:12.533Z,13.92
2022-09-22T01:16:15.859Z,17.21
2022-09-22T01:17:18.332Z,19.67
2022-09-22T01:18:20.775Z,14.58
2022-09-22T01:19:23.260Z,11.88
2022-09-22T01:20:25.988Z,14.16
2022-09-22T01:21:28.637Z,12.61
2022-09-22T01:22:31.108Z,11.96
2022-09-22T01:23:33.549Z,12.50
2022-09-22T01:24:36.026Z,12.77
2022-09-22T01:25:38.468Z,10.07
2022-09-22T01:26:41.113Z,10.43
2022-09-22T01:27:43.559Z,12.95
2022-09-22T01:28:46.015Z,8.45
2022-09-22T01:29:48.514Z,12.48
2022-09-22T01:30:51.376Z,11.53
2022-09-22T01:31:53.963Z,13.30
2022-09-22T01:32:56.512Z,15.11
2022-09-22T01:33:58.952Z,12.53
2022-09-22T01:35:01.951Z,13.36
2022-09-22T01:36:04.489Z,11.43
2022-09-22T01:37:06.969Z,15.47
2022-09-22T01:38:09.471Z,12.72
2022-09-22T01:39:11.914Z,11.44
2022-09-22T01:40:15.304Z,10.51
2022-09-22T01:41:17.813Z,10.54
2022-09-22T01:42:20.249Z,11.14
2022-09-22T01:43:22.709Z,12.41
2022-09-22T01:44:25.148Z,14.99
2022-09-22T01:45:27.642Z,11.85
2022-09-22T01:46:30.379Z,10.39
2022-09-22T01:47:32.861Z,12.99
2022-09-22T01:48:35.323Z,6.76
2022-09-22T01:49:37.763Z,11.81
2022-09-22T01:50:40.439Z,13.08
2022-09-22T01:51:43.241Z,10.91
2022-09-22T01:52:45.711Z,9.33
2022-09-22T01:53:48.179Z,9.76
2022-09-22T01:54:50.640Z,8.47
2022-09-22T01:55:53.162Z,23.89
2022-09-22T01:56:55.758Z,11.49
2022-09-22T01:57:58.331Z,10.07
2022-09-22T01:59:00.762Z,13.08
2022-09-22T02:00:03.414Z,10.61
2022-09-22T02:01:07.959Z,10.81
2022-09-22T02:02:10.513Z,10.68
2022-09-22T02:03:13.307Z,9.54
2022-09-22T02:04:15.749Z,7.86
2022-09-22T02:05:18.225Z,9.09
2022-09-22T02:06:21.011Z,9.60
2022-09-22T02:07:23.451Z,8.56
2022-09-22T02:08:25.895Z,6.99
2022-09-22T02:09:28.453Z,7.19
2022-09-22T02:10:31.222Z,8.85
2022-09-22T02:11:33.735Z,9.33
2022-09-22T02:12:36.150Z,10.51
2022-09-22T02:13:38.590Z,10.94
2022-09-22T02:14:41.034Z,10.97
2022-09-22T02:15:43.577Z,9.79
2022-09-22T02:16:46.555Z,10.79
2022-09-22T02:17:49.080Z,8.29
2022-09-22T02:18:51.527Z,12.07
2022-09-22T02:19:53.968Z,8.49
2022-09-22T02:20:56.541Z,9.52
2022-09-22T02:21:59.014Z,7.76
2022-09-22T02:23:01.451Z,10.83
2022-09-22T02:24:03.898Z,7.35
2022-09-22T02:25:06.349Z,8.04
2022-09-22T02:26:09.290Z,8.21
2022-09-22T02:27:11.774Z,11.17
2022-09-22T02:28:14.221Z,10.83
2022-09-22T02:29:16.676Z,9.55
2022-09-22T02:30:19.641Z,7.69
2022-09-22T02:31:22.158Z,9.99
2022-09-22T02:32:25.024Z,12.79
2022-09-22T02:33:27.462Z,14.95
2022-09-22T02:34:29.904Z,7.57
2022-09-22T02:35:32.345Z,8.05
2022-09-22T02:36:34.996Z,6.67
2022-09-22T02:37:37.474Z,5.92
2022-09-22T02:38:40.016Z,8.33
2022-09-22T02:39:42.458Z,6.09
2022-09-22T02:40:45.204Z,6.65
2022-09-22T02:41:47.746Z,7.34
2022-09-22T02:42:50.236Z,7.28
2022-09-22T02:43:52.675Z,9.81
2022-09-22T02:44:55.120Z,7.80
2022-09-22T02:45:57.909Z,7.66
2022-09-22T02:47:00.516Z,9.17
2022-09-22T02:48:03.014Z,9.59
2022-09-22T02:49:05.456Z,9.31
2022-09-22T02:50:08.511Z,8.23
2022-09-22T02:51:10.989Z,8.31
2022-09-22T02:52:13.447Z,7.55
2022-09-22T02:53:15.918Z,7.61
2022-09-22T02:54:18.391Z,7.42
2022-09-22T02:55:20.831Z,7.63
2022-09-22T02:56:23.606Z,6.41
2022-09-22T02:57:26.044Z,6.55
2022-09-22T02:58:28.520Z,7.21
2022-09-22T02:59:30.968Z,6.10
2022-09-22T03:00:33.605Z,6.07
2022-09-22T03:01:36.474Z,7.31
2022-09-22T03:02:39.051Z,6.31
2022-09-22T03:03:41.895Z,7.38
2022-09-22T03:04:44.411Z,10.51
2022-09-22T03:05:46.907Z,10.88
2022-09-22T03:06:49.503Z,10.00
2022-09-22T03:07:51.965Z,5.47
2022-09-22T03:08:54.465Z,4.57
2022-09-22T03:09:56.896Z,6.61
2022-09-22T03:10:59.451Z,10.44
2022-09-22T03:12:01.916Z,10.89
2022-09-22T03:13:19.696Z,6.53
2022-09-22T03:14:08.877Z,9.84
2022-09-22T03:15:11.647Z,6.03
2022-09-22T03:16:14.677Z,6.64
2022-09-22T03:17:17.174Z,7.89
2022-09-22T03:18:19.610Z,7.62
2022-09-22T03:19:22.090Z,7.45
2022-09-22T03:20:24.976Z,6.68
2022-09-22T03:21:27.631Z,8.41
2022-09-22T03:22:30.109Z,19.79
2022-09-22T03:23:32.559Z,11.81
2022-09-22T03:24:35.056Z,16.81
2022-09-22T03:25:37.505Z,22.04
2022-09-22T03:26:40.055Z,16.89
2022-09-22T03:27:42.504Z,6.89
2022-09-22T03:28:44.930Z,6.94
2022-09-22T03:29:47.399Z,10.11
2022-09-22T03:30:50.200Z,4.76
2022-09-22T03:31:52.803Z,6.87
2022-09-22T03:32:55.245Z,10.61
2022-09-22T03:33:57.679Z,8.57
2022-09-22T03:35:00.145Z,7.65
2022-09-22T03:36:03.158Z,7.47
2022-09-22T03:37:05.751Z,6.92
2022-09-22T03:38:08.266Z,8.13
2022-09-22T03:39:10.709Z,25.10
2022-09-22T03:40:14.052Z,10.73
2022-09-22T03:41:17.244Z,7.68
2022-09-22T03:42:19.787Z,4.02
2022-09-22T03:43:22.225Z,14.74
2022-09-22T03:44:24.682Z,5.49
2022-09-22T03:45:27.156Z,11.67
2022-09-22T03:46:29.962Z,7.53
2022-09-22T03:47:32.538Z,6.06
2022-09-22T03:48:35.298Z,6.35
2022-09-22T03:49:37.746Z,6.19
2022-09-22T03:50:40.311Z,6.39
2022-09-22T03:51:42.758Z,6.45
2022-09-22T03:52:45.227Z,12.53
2022-09-22T03:53:47.644Z,7.19
2022-09-22T03:54:50.109Z,8.99
2022-09-22T03:55:52.577Z,11.47
2022-09-22T03:56:55.315Z,10.55
2022-09-22T03:57:57.954Z,10.77
2022-09-22T03:59:00.402Z,7.07
2022-09-22T04:00:03.034Z,7.03
2022-09-22T04:01:05.540Z,10.03
2022-09-22T04:02:08.101Z,6.28
2022-09-22T04:03:10.653Z,6.99
2022-09-22T04:04:13.109Z,11.29
2022-09-22T04:05:15.744Z,8.45
2022-09-22T04:06:18.424Z,8.08
2022-09-22T04:07:20.869Z,5.53
2022-09-22T04:08:23.299Z,5.91
2022-09-22T04:09:25.738Z,15.82
2022-09-22T04:10:28.176Z,7.25
2022-09-22T04:11:30.647Z,9.64
2022-09-22T04:12:33.090Z,7.00
2022-09-22T04:13:35.541Z,10.20
2022-09-22T04:14:38.018Z,5.90
2022-09-22T04:15:40.462Z,5.80
2022-09-22T04:16:43.127Z,6.54
2022-09-22T04:17:45.675Z,5.33
2022-09-22T04:18:48.114Z,8.42
2022-09-22T04:19:50.563Z,10.81
2022-09-22T04:20:53.443Z,8.00
2022-09-22T04:21:57.315Z,7.77
2022-09-22T04:23:00.577Z,9.68
2022-09-22T04:24:03.025Z,7.95
2022-09-22T04:25:05.456Z,6.37
2022-09-22T04:26:08.198Z,8.12
2022-09-22T04:27:25.905Z,8.81
2022-09-22T04:28:15.013Z,9.78
2022-09-22T04:29:17.448Z,13.23
2022-09-22T04:30:20.077Z,9.62
2022-09-22T04:31:22.539Z,10.53
2022-09-22T04:32:25.249Z,16.03
2022-09-22T04:33:27.708Z,14.27
2022-09-22T04:34:30.194Z,19.14
2022-09-22T04:35:32.638Z,17.39
2022-09-22T04:36:35.174Z,12.57
2022-09-22T04:37:37.705Z,22.41
2022-09-22T04:38:40.161Z,16.38
2022-09-22T04:39:42.719Z,17.13
2022-09-22T04:40:45.276Z,22.74
2022-09-22T04:41:47.728Z,16.90
2022-09-22T04:42:50.454Z,13.61
2022-09-22T04:43:52.885Z,12.67
2022-09-22T04:44:55.426Z,17.49
2022-09-22T04:45:57.975Z,10.76
2022-09-22T04:47:00.690Z,7.87
2022-09-22T04:48:03.155Z,8.81
2022-09-22T04:49:05.616Z,8.66
2022-09-22T04:50:08.411Z,11.46
2022-09-22T04:51:10.906Z,7.31
2022-09-22T04:52:13.340Z,5.37
2022-09-22T04:53:15.847Z,5.75
2022-09-22T04:54:18.281Z,6.55
2022-09-22T04:55:20.730Z,4.85
2022-09-22T04:56:23.582Z,8.06
2022-09-22T04:57:26.028Z,4.41
2022-09-22T04:58:28.493Z,5.96
2022-09-22T04:59:30.929Z,3.88
2022-09-22T05:00:33.367Z,8.44
2022-09-22T05:01:35.879Z,7.49
2022-09-22T05:02:38.537Z,5.33
2022-09-22T05:03:41.054Z,4.80
2022-09-22T05:04:43.601Z,6.81
2022-09-22T05:05:46.057Z,10.62
2022-09-22T05:06:48.598Z,4.53
2022-09-22T05:07:51.345Z,7.07
2022-09-22T05:08:53.858Z,5.52
2022-09-22T05:09:56.306Z,6.59
2022-09-22T05:10:59.001Z,5.39
2022-09-22T05:12:01.503Z,4.25
2022-09-22T05:13:04.249Z,5.26
2022-09-22T05:14:06.711Z,6.76
2022-09-22T05:15:09.356Z,5.41
2022-09-22T05:16:13.698Z,6.78
2022-09-22T05:17:16.189Z,5.33
2022-09-22T05:18:18.627Z,4.31
2022-09-22T05:19:21.155Z,19.22
2022-09-22T05:20:23.930Z,4.85
2022-09-22T05:21:26.588Z,5.06
2022-09-22T05:22:29.395Z,7.41
2022-09-22T05:23:31.839Z,4.07
2022-09-22T05:24:34.314Z,6.37
2022-09-22T05:25:36.786Z,10.56
2022-09-22T05:26:39.323Z,7.59
2022-09-22T05:27:41.967Z,6.28
2022-09-22T05:28:44.425Z,6.85
2022-09-22T05:29:46.917Z,8.65
2022-09-22T05:30:49.689Z,4.01
2022-09-22T05:31:52.184Z,3.90
2022-09-22T05:32:54.611Z,4.91
2022-09-22T05:33:57.130Z,7.38
2022-09-22T05:34:59.608Z,5.20
2022-09-22T05:36:02.051Z,5.54
2022-09-22T05:37:04.513Z,4.47
2022-09-22T05:38:07.102Z,5.95
2022-09-22T05:39:09.547Z,6.03
2022-09-22T05:40:12.335Z,5.76
2022-09-22T05:41:14.871Z,4.85
2022-09-22T05:42:17.337Z,5.33
2022-09-22T05:43:19.777Z,6.34
2022-09-22T05:44:22.272Z,4.76
2022-09-22T05:45:24.800Z,5.01
2022-09-22T05:46:27.619Z,6.36
2022-09-22T05:47:30.103Z,5.71
2022-09-22T05:48:32.547Z,5.64
2022-09-22T05:49:34.990Z,6.36
2022-09-22T05:50:37.701Z,4.93
2022-09-22T05:51:40.144Z,7.15
2022-09-22T05:52:42.599Z,10.10
2022-09-22T05:53:45.038Z,6.45
2022-09-22T05:54:47.481Z,5.40
2022-09-22T05:55:49.983Z,7.27
2022-09-22T05:56:52.437Z,8.47
2022-09-22T05:57:54.894Z,6.25
2022-09-22T05:58:57.340Z,6.38
2022-09-22T05:59:59.791Z,4.96
2022-09-22T06:01:02.356Z,8.06
2022-09-22T06:02:18.073Z,10.50
2022-09-22T06:03:09.358Z,7.01
2022-09-22T06:04:11.831Z,6.87
2022-09-22T06:05:17.361Z,5.51
2022-09-22T06:06:18.878Z,5.58
2022-09-22T06:07:21.352Z,7.79
2022-09-22T06:08:23.874Z,8.05
2022-09-22T06:09:26.363Z,4.75
2022-09-22T06:10:28.798Z,5.75
2022-09-22T06:11:31.280Z,7.81
2022-09-22T06:12:33.729Z,6.11
2022-09-22T06:13:36.170Z,6.22
2022-09-22T06:14:38.622Z,6.09
2022-09-22T06:15:41.067Z,5.67
2022-09-22T06:16:43.903Z,6.95
2022-09-22T06:17:46.409Z,6.43
2022-09-22T06:18:48.857Z,5.63
2022-09-22T06:19:51.296Z,4.51
2022-09-22T06:20:53.854Z,7.16
2022-09-22T06:21:56.351Z,4.96
2022-09-22T06:22:58.791Z,3.81
2022-09-22T06:24:01.246Z,6.74
2022-09-22T06:25:03.704Z,6.65
2022-09-22T06:26:06.866Z,8.03
2022-09-22T06:27:09.361Z,4.49
2022-09-22T06:28:11.845Z,5.47
2022-09-22T06:29:14.288Z,6.01
2022-09-22T06:30:17.851Z,4.44
2022-09-22T06:31:20.349Z,5.08
2022-09-22T06:32:22.900Z,6.53
2022-09-22T06:33:25.339Z,5.50
2022-09-22T06:34:27.784Z,4.61
2022-09-22T06:35:30.231Z,5.99
2022-09-22T06:36:32.978Z,8.00
2022-09-22T06:37:35.480Z,6.02
2022-09-22T06:38:37.923Z,8.41
2022-09-22T06:39:40.510Z,5.92
2022-09-22T06:40:43.423Z,7.84
2022-09-22T06:41:46.010Z,5.84
2022-09-22T06:42:48.490Z,6.45
2022-09-22T06:43:50.947Z,10.00
2022-09-22T06:44:53.421Z,4.51
2022-09-22T06:45:55.930Z,4.61
2022-09-22T06:46:58.716Z,3.95
2022-09-22T06:48:01.223Z,3.73
2022-09-22T06:49:03.725Z,5.35
2022-09-22T06:50:06.484Z,3.71
2022-09-22T06:51:11.840Z,6.00
2022-09-22T06:52:13.309Z,3.96
2022-09-22T06:53:15.926Z,3.50
2022-09-22T06:54:18.711Z,4.47
2022-09-22T06:55:21.983Z,4.56
2022-09-22T06:56:24.463Z,4.59
2022-09-22T06:57:26.934Z,3.45
2022-09-22T06:58:29.400Z,2.55
2022-09-22T06:59:31.851Z,4.48
2022-09-22T07:00:34.770Z,2.88
2022-09-22T07:01:37.832Z,3.11
2022-09-22T07:02:40.603Z,2.44
2022-09-22T07:03:43.126Z,2.46
2022-09-22T07:04:45.562Z,2.45
2022-09-22T07:05:48.108Z,6.95
2022-09-22T07:06:50.660Z,3.11
2022-09-22T07:07:53.113Z,5.07
2022-09-22T07:08:55.696Z,5.05
2022-09-22T07:09:58.344Z,3.36
2022-09-22T07:11:01.004Z,3.36
2022-09-22T07:12:03.442Z,3.77
2022-09-22T07:13:05.900Z,4.31
2022-09-22T07:14:08.536Z,7.13
2022-09-22T07:15:11.490Z,3.31
2022-09-22T07:16:14.779Z,2.90
2022-09-22T07:17:17.297Z,4.44
2022-09-22T07:18:19.743Z,5.36
2022-09-22T07:19:22.227Z,20.81
2022-09-22T07:20:24.779Z,3.87
2022-09-22T07:21:27.297Z,3.23
2022-09-22T07:22:30.178Z,6.46
2022-09-22T07:23:50.978Z,6.38
2022-09-22T07:24:53.524Z,2.80
2022-09-22T07:25:56.148Z,3.47
2022-09-22T07:26:58.919Z,6.20
2022-09-22T07:28:01.418Z,4.45
2022-09-22T07:29:03.985Z,7.92
2022-09-22T07:30:06.973Z,7.58
2022-09-22T07:31:09.451Z,17.97
2022-09-22T07:32:12.067Z,15.41
2022-09-22T07:33:14.687Z,2.70
2022-09-22T07:34:17.139Z,3.19
2022-09-22T07:35:19.662Z,3.39
2022-09-22T07:36:22.908Z,2.79
2022-09-22T07:37:25.397Z,2.79
2022-09-22T07:38:27.854Z,5.28
2022-09-22T07:39:30.303Z,4.77
2022-09-22T07:40:33.032Z,3.12
2022-09-22T07:41:35.529Z,3.19
2022-09-22T07:42:38.017Z,2.75
2022-09-22T07:43:40.833Z,2.77
2022-09-22T07:44:44.693Z,4.11
2022-09-22T07:45:47.649Z,1.76
2022-09-22T07:46:50.297Z,2.48
2022-09-22T07:47:52.972Z,1.62
2022-09-22T07:48:55.412Z,1.59
2022-09-22T07:49:57.863Z,3.05
2022-09-22T07:51:00.660Z,6.06
2022-09-22T07:52:03.250Z,1.42
2022-09-22T07:53:05.711Z,3.50
2022-09-22T07:54:08.197Z,1.81
2022-09-22T07:55:10.653Z,1.29
2022-09-22T07:56:13.342Z,1.42
2022-09-22T07:57:15.813Z,1.32
2022-09-22T07:58:18.265Z,1.81
2022-09-22T07:59:20.719Z,2.00
2022-09-22T08:00:23.497Z,5.17
2022-09-22T08:01:26.031Z,2.83
2022-09-22T08:02:28.514Z,2.42
2022-09-22T08:03:31.031Z,1.89
2022-09-22T08:04:33.504Z,2.77
2022-09-22T08:05:35.958Z,1.95
2022-09-22T08:06:38.809Z,1.59
2022-09-22T08:07:41.266Z,3.00
2022-09-22T08:08:43.730Z,1.55
2022-09-22T08:09:46.195Z,2.19
2022-09-22T08:10:48.848Z,9.19
2022-09-22T08:11:51.351Z,1.77
2022-09-22T08:12:53.812Z,1.57
2022-09-22T08:13:56.267Z,2.45
2022-09-22T08:14:58.744Z,1.79
2022-09-22T08:16:01.262Z,2.01
2022-09-22T08:17:04.033Z,2.64
2022-09-22T08:18:06.485Z,2.25
2022-09-22T08:19:08.999Z,1.88
2022-09-22T08:20:13.273Z,3.34
2022-09-22T08:21:16.173Z,2.36
2022-09-22T08:22:18.673Z,4.32
2022-09-22T08:23:21.135Z,2.43
2022-09-22T08:24:24.077Z,2.45
2022-09-22T08:25:26.855Z,3.22
2022-09-22T08:26:29.522Z,2.80
2022-09-22T08:27:32.051Z,2.78
2022-09-22T08:28:34.771Z,4.32
2022-09-22T08:29:37.247Z,4.99
2022-09-22T08:30:39.774Z,3.12
2022-09-22T08:31:42.299Z,2.95
2022-09-22T08:32:44.846Z,6.17
2022-09-22T08:33:47.318Z,2.35
2022-09-22T08:34:49.794Z,2.63
2022-09-22T08:35:52.297Z,2.28
2022-09-22T08:36:54.964Z,1.95
2022-09-22T08:37:57.458Z,2.19
2022-09-22T08:38:59.955Z,3.59
2022-09-22T08:40:03.054Z,2.89
2022-09-22T08:41:05.592Z,2.26
2022-09-22T08:42:08.336Z,2.11
2022-09-22T08:43:10.969Z,3.85
2022-09-22T08:44:13.444Z,1.53
2022-09-22T08:45:15.912Z,2.03
2022-09-22T08:46:18.791Z,2.53
2022-09-22T08:47:21.561Z,2.73
2022-09-22T08:48:24.075Z,2.13
2022-09-22T08:49:26.528Z,4.01
2022-09-22T08:50:29.091Z,2.61
2022-09-22T08:51:31.708Z,2.07
2022-09-22T08:52:34.185Z,3.04
2022-09-22T08:53:36.665Z,2.33
2022-09-22T08:54:39.157Z,1.93
2022-09-22T08:55:41.747Z,3.63
2022-09-22T08:56:44.521Z,1.87
2022-09-22T08:57:46.977Z,1.67
2022-09-22T08:58:49.494Z,3.13
2022-09-22T08:59:51.962Z,2.29
2022-09-22T09:00:54.833Z,3.54
2022-09-22T09:01:57.313Z,2.42
2022-09-22T09:02:59.899Z,4.41
2022-09-22T09:04:02.610Z,11.24
2022-09-22T09:05:05.218Z,2.83
2022-09-22T09:06:08.495Z,2.91
2022-09-22T09:07:10.955Z,3.51
2022-09-22T09:08:13.420Z,3.33
2022-09-22T09:09:15.920Z,6.09
2022-09-22T09:10:18.613Z,2.29
2022-09-22T09:11:21.091Z,2.73
2022-09-22T09:12:23.578Z,2.37
2022-09-22T09:13:26.049Z,5.17
2022-09-22T09:14:28.558Z,2.14
2022-09-22T09:15:31.015Z,3.41
2022-09-22T09:16:37.158Z,3.15
2022-09-22T09:17:38.075Z,2.49
2022-09-22T09:18:40.547Z,2.51
2022-09-22T09:19:43.033Z,2.41
2022-09-22T09:20:45.587Z,3.85
2022-09-22T09:21:48.041Z,2.34
2022-09-22T09:22:50.506Z,3.47
2022-09-22T09:26:01.943Z,2.13
2022-09-22T09:27:04.409Z,2.02
2022-09-22T09:28:06.936Z,2.55
2022-09-22T09:29:09.589Z,2.80
2022-09-22T09:30:13.011Z,2.68
2022-09-22T09:31:15.548Z,2.33
2022-09-22T09:32:18.052Z,6.37
2022-09-22T09:33:20.526Z,5.48
2022-09-22T09:34:22.981Z,3.01
2022-09-22T09:35:25.466Z,3.17
2022-09-22T09:36:28.337Z,3.12
2022-09-22T09:37:30.799Z,2.86
2022-09-22T09:38:33.246Z,2.45
2022-09-22T09:39:35.697Z,2.82
2022-09-22T09:40:38.534Z,3.45
2022-09-22T09:41:41.074Z,2.39
2022-09-22T09:42:43.536Z,4.15
2022-09-22T09:43:46.002Z,2.61
2022-09-22T09:44:48.469Z,2.68
2022-09-22T09:45:51.006Z,2.49
2022-09-22T09:46:53.466Z,2.67
2022-09-22T09:47:59.848Z,7.31
2022-09-22T09:49:01.255Z,6.35
2022-09-22T09:50:04.021Z,3.29
2022-09-22T09:51:06.551Z,4.75
2022-09-22T09:52:09.020Z,2.30
2022-09-22T09:53:11.501Z,2.63
2022-09-22T09:54:16.985Z,2.83
2022-09-22T09:55:18.344Z,3.61
2022-09-22T09:56:21.257Z,3.51
2022-09-22T09:57:27.698Z,2.67
2022-09-22T09:58:28.098Z,3.16
2022-09-22T09:59:30.574Z,3.87
2022-09-22T10:00:33.148Z,2.21
2022-09-22T10:01:35.798Z,3.32
2022-09-22T10:02:38.344Z,4.70
2022-09-22T10:03:41.302Z,3.19
2022-09-22T10:04:44.061Z,4.60
2022-09-22T10:05:46.530Z,3.49
2022-09-22T10:06:49.135Z,3.59
2022-09-22T10:07:51.597Z,3.15
2022-09-22T10:08:54.073Z,4.99
2022-09-22T10:09:56.639Z,3.35
2022-09-22T10:10:59.213Z,3.78
2022-09-22T10:12:01.718Z,3.01
2022-09-22T10:13:04.203Z,3.25
2022-09-22T10:14:06.681Z,2.43
2022-09-22T10:15:09.180Z,5.92
2022-09-22T10:16:12.620Z,4.91
2022-09-22T10:17:15.188Z,6.21
2022-09-22T10:18:17.659Z,3.37
2022-09-22T10:19:20.135Z,4.25
2022-09-22T10:20:22.890Z,3.81
2022-09-22T10:21:25.604Z,3.89
2022-09-22T10:22:28.248Z,2.72
2022-09-22T10:23:30.707Z,4.07
2022-09-22T10:24:33.228Z,4.73
2022-09-22T10:25:35.703Z,3.28
2022-09-22T10:26:38.269Z,3.68
2022-09-22T10:27:40.759Z,3.39
2022-09-22T10:28:43.286Z,5.29
2022-09-22T10:29:45.748Z,5.60
2022-09-22T10:30:48.441Z,2.27
2022-09-22T10:31:50.938Z,6.40
2022-09-22T10:32:53.443Z,4.35
2022-09-22T10:33:56.345Z,7.07
2022-09-22T10:34:58.807Z,3.03
2022-09-22T10:36:01.275Z,8.51
2022-09-22T10:37:03.745Z,3.25
2022-09-22T10:38:06.246Z,4.65
2022-09-22T10:39:08.785Z,5.93
2022-09-22T10:40:12.509Z,2.79
2022-09-22T10:41:15.726Z,2.35
2022-09-22T10:42:18.196Z,2.67
2022-09-22T10:43:20.711Z,2.70
2022-09-22T10:44:41.887Z,3.73
2022-09-22T10:45:27.811Z,2.86
2022-09-22T10:46:30.348Z,4.21
2022-09-22T10:47:32.903Z,7.35
2022-09-22T10:48:35.401Z,2.69
2022-09-22T10:49:37.870Z,1.55
2022-09-22T10:50:40.663Z,2.86
2022-09-22T10:51:43.170Z,3.17
2022-09-22T10:52:45.675Z,3.01
2022-09-22T10:53:48.204Z,9.50
2022-09-22T10:54:50.667Z,2.43
2022-09-22T10:55:53.128Z,2.55
2022-09-22T10:56:55.699Z,3.33
2022-09-22T10:57:58.291Z,3.27
2022-09-22T10:59:00.912Z,3.29
2022-09-22T11:00:03.380Z,3.67
2022-09-22T11:01:05.941Z,3.34
2022-09-22T11:02:08.609Z,3.12
2022-09-22T11:03:11.078Z,4.01
2022-09-22T11:04:13.649Z,2.01
2022-09-22T11:05:16.482Z,4.79
2022-09-22T11:06:19.144Z,6.32
2022-09-22T11:07:21.602Z,3.30
2022-09-22T11:08:24.443Z,4.63
2022-09-22T11:09:27.094Z,3.87
2022-09-22T11:10:29.862Z,5.28
2022-09-22T11:11:33.617Z,2.43
2022-09-22T11:12:36.704Z,3.05
2022-09-22T11:13:39.163Z,2.64
2022-09-22T11:14:42.033Z,2.62
2022-09-22T11:15:44.540Z,2.99
2022-09-22T11:16:47.387Z,2.44
2022-09-22T11:17:49.865Z,3.32
2022-09-22T11:18:52.329Z,2.72
2022-09-22T11:19:54.838Z,4.15
2022-09-22T11:20:57.743Z,2.63
2022-09-22T11:22:00.215Z,2.13
2022-09-22T11:23:02.767Z,1.88
2022-09-22T11:24:05.230Z,2.87
2022-09-22T11:25:07.729Z,3.04
2022-09-22T11:26:11.155Z,4.34
2022-09-22T11:27:13.629Z,3.89
2022-09-22T11:28:16.089Z,2.93
2022-09-22T11:29:18.563Z,3.95
2022-09-22T11:30:21.179Z,3.94
2022-09-22T11:31:23.645Z,4.27
2022-09-22T11:32:26.119Z,3.74
2022-09-22T11:33:28.632Z,2.96
2022-09-22T11:34:31.093Z,2.37
2022-09-22T11:35:33.703Z,4.08
2022-09-22T11:36:36.569Z,4.16
2022-09-22T11:37:39.045Z,5.39
2022-09-22T11:38:41.823Z,2.31
2022-09-22T11:39:44.293Z,3.10
2022-09-22T11:40:47.050Z,3.03
2022-09-22T11:41:49.859Z,2.93
2022-09-22T11:42:52.337Z,2.31
2022-09-22T11:43:57.102Z,2.29
2022-09-22T11:44:59.194Z,2.23
2022-09-22T11:46:01.724Z,4.39
2022-09-22T11:47:04.263Z,2.16
2022-09-22T11:48:06.720Z,3.41
2022-09-22T11:49:09.214Z,2.27
2022-09-22T11:50:12.791Z,4.29
2022-09-22T11:51:15.319Z,4.28
2022-09-22T11:52:17.829Z,2.57
2022-09-22T11:53:20.364Z,3.15
2022-09-22T11:54:22.832Z,2.32
2022-09-22T11:55:25.330Z,3.20
2022-09-22T11:56:27.991Z,4.26
2022-09-22T11:57:30.447Z,3.57
2022-09-22T11:58:32.935Z,3.04
2022-09-22T11:59:35.413Z,4.15
2022-09-22T12:00:38.255Z,2.89
2022-09-22T12:01:40.959Z,2.23
2022-09-22T12:02:43.540Z,2.67
2022-09-22T12:03:46.664Z,3.36
2022-09-22T12:04:49.259Z,2.24
2022-09-22T12:05:51.737Z,2.29
2022-09-22T12:06:54.642Z,3.60
2022-09-22T12:07:57.105Z,4.19
2022-09-22T12:08:59.571Z,4.04
2022-09-22T12:10:02.022Z,2.93
2022-09-22T12:11:04.841Z,2.90
2022-09-22T12:12:07.390Z,3.30
2022-09-22T12:13:09.851Z,3.75
2022-09-22T12:14:12.303Z,3.23
2022-09-22T12:15:14.752Z,2.98
2022-09-22T12:16:18.118Z,6.76
2022-09-22T12:17:22.945Z,4.83
2022-09-22T12:18:25.122Z,4.08
2022-09-22T12:19:27.575Z,3.79
2022-09-22T12:20:30.139Z,6.26
2022-09-22T12:21:32.585Z,10.67
2022-09-22T12:22:35.111Z,5.89
2022-09-22T12:23:37.570Z,8.40
2022-09-22T12:24:40.065Z,7.65
2022-09-22T12:25:48.741Z,5.17
2022-09-22T12:26:47.132Z,6.38
2022-09-22T12:27:49.620Z,8.67
2022-09-22T12:28:52.273Z,8.73
2022-09-22T12:29:54.721Z,7.05
2022-09-22T12:30:57.344Z,4.76
2022-09-22T12:31:59.960Z,3.89
2022-09-22T12:33:02.457Z,8.72
2022-09-22T12:34:04.982Z,7.57
2022-09-22T12:35:07.480Z,4.13
2022-09-22T12:36:10.547Z,3.11
2022-09-22T12:37:13.052Z,18.03
2022-09-22T12:38:15.598Z,3.54
2022-09-22T12:39:18.078Z,3.76
2022-09-22T12:40:20.962Z,3.17
2022-09-22T12:41:23.550Z,3.80
2022-09-22T12:42:26.206Z,4.86
2022-09-22T12:43:28.751Z,3.03
2022-09-22T12:44:31.208Z,3.55
2022-09-22T12:45:33.684Z,3.75
2022-09-22T12:46:36.256Z,8.95
2022-09-22T12:47:38.740Z,4.95
2022-09-22T12:48:41.241Z,5.92
2022-09-22T12:49:43.805Z,4.36
2022-09-22T12:50:46.425Z,2.88
2022-09-22T12:51:48.894Z,2.61
2022-09-22T12:52:51.356Z,3.95
2022-09-22T12:53:53.884Z,3.97
2022-09-22T12:54:56.355Z,4.60
2022-09-22T12:55:58.811Z,3.35
2022-09-22T12:57:01.533Z,7.31
2022-09-22T12:58:04.157Z,2.65
2022-09-22T12:59:06.763Z,3.55
2022-09-22T13:00:10.133Z,4.47
2022-09-22T13:01:12.649Z,3.23
2022-09-22T13:02:15.196Z,5.10
2022-09-22T13:03:17.813Z,3.12
2022-09-22T13:04:20.300Z,2.65
2022-09-22T13:05:22.880Z,4.01
2022-09-22T13:06:25.439Z,3.37
2022-09-22T13:07:27.895Z,3.85
2022-09-22T13:08:30.363Z,3.74
2022-09-22T13:09:32.908Z,5.83
2022-09-22T13:10:35.567Z,3.89
2022-09-22T13:11:38.099Z,4.05
2022-09-22T13:12:40.566Z,3.52
2022-09-22T13:13:43.022Z,3.61
2022-09-22T13:14:45.502Z,4.45
2022-09-22T13:15:47.965Z,4.13
2022-09-22T13:16:50.653Z,8.04
2022-09-22T13:17:53.303Z,9.90
2022-09-22T13:18:55.774Z,8.45
2022-09-22T13:19:58.281Z,6.74
2022-09-22T13:21:01.055Z,5.13
2022-09-22T13:22:03.555Z,4.95
2022-09-22T13:23:06.011Z,4.85
2022-09-22T13:24:08.476Z,8.48
2022-09-22T13:25:10.973Z,6.73
2022-09-22T13:26:14.048Z,5.50
2022-09-22T13:27:16.497Z,5.67
2022-09-22T13:28:19.016Z,10.84
2022-09-22T13:29:21.467Z,7.32
2022-09-22T13:30:24.503Z,19.12
2022-09-22T13:31:27.001Z,8.81
2022-09-22T13:32:29.459Z,9.12
2022-09-22T13:33:31.920Z,9.69
2022-09-22T13:34:34.384Z,9.09
2022-09-22T13:35:36.940Z,11.35
2022-09-22T13:36:39.816Z,12.24
2022-09-22T13:37:42.379Z,12.86
2022-09-22T13:38:44.843Z,9.58
2022-09-22T13:39:47.879Z,11.52
2022-09-22T13:40:51.031Z,13.74
2022-09-22T13:41:54.104Z,10.29
2022-09-22T13:42:56.557Z,13.16
2022-09-22T13:43:59.026Z,12.98
2022-09-22T13:45:01.490Z,13.52
2022-09-22T13:46:04.024Z,12.03
2022-09-22T13:47:06.620Z,9.86
2022-09-22T13:48:09.077Z,13.18
2022-09-22T13:49:11.544Z,9.79
2022-09-22T13:50:14.529Z,6.05